Time;durP1;ratioP1;P1;durP2;ratioP2;P2;SDS_P1;SDS_P2;PMS_P1;PMS_P2;Temp;Humidity;BMP_temperature;BMP_pressure;BME280_temperature;BME280_humidity;BME280_pressure;Samples;Min_cycle;Max_cycle;Signal;HPM_P1;HPM_P2
2023/01/26 00:02:35;;;;;;;22.48;14.40;;;3.10;99.90;;;;;;4985820;28;20306;-74
2023/01/26 00:05:20;;;;;;;22.77;15.57;;;3.20;99.90;;;;;;4996856;28;20207;-74
2023/01/26 00:08:08;;;;;;;31.60;13.98;;;3.30;99.90;;;;;;4977051;28;20596;-75
2023/01/26 00:10:54;;;;;;;22.65;13.55;;;3.30;99.90;;;;;;4993706;28;20251;-74
2023/01/26 00:13:40;;;;;;;23.65;14.82;;;3.20;99.90;;;;;;4990831;28;20209;-75
2023/01/26 00:16:26;;;;;;;23.95;15.27;;;3.40;99.90;;;;;;5002463;28;20277;-75
2023/01/26 00:19:11;;;;;;;26.58;15.15;;;3.30;99.90;;;;;;5000061;28;20242;-75
2023/01/26 00:21:57;;;;;;;21.15;14.93;;;3.40;99.90;;;;;;4983111;28;20862;-74
2023/01/26 00:24:44;;;;;;;23.90;14.70;;;3.40;99.90;;;;;;4986706;28;20203;-74
2023/01/26 00:27:32;;;;;;;27.15;15.63;;;3.50;99.90;;;;;;4999302;28;20301;-74
2023/01/26 00:30:19;;;;;;;27.15;17.20;;;3.50;99.90;;;;;;4988240;28;20585;-74
2023/01/26 00:33:04;;;;;;;24.40;15.95;;;3.40;99.90;;;;;;4983724;28;20702;-74
2023/01/26 00:35:54;;;;;;;24.77;15.18;;;3.40;99.90;;;;;;4990295;28;20217;-74
2023/01/26 00:38:40;;;;;;;23.45;14.57;;;3.40;99.90;;;;;;4990065;28;20210;-74
2023/01/26 00:44:30;;;;;;;29.17;16.88;;;3.50;99.90;;;;;;4990848;28;20719;-74
2023/01/26 00:47:17;;;;;;;29.25;15.75;;;3.50;99.90;;;;;;4992427;28;20262;-76
2023/01/26 00:50:03;;;;;;;27.27;15.88;;;3.50;99.90;;;;;;4993948;28;20289;-74
2023/01/26 00:52:49;;;;;;;28.63;16.20;;;3.50;99.90;;;;;;4981878;28;20206;-73
2023/01/26 00:55:34;;;;;;;24.95;15.18;;;3.50;99.90;;;;;;4990902;28;20735;-73
2023/01/26 00:58:21;;;;;;;25.65;15.10;;;3.50;99.90;;;;;;4993059;28;20710;-73
2023/01/26 01:01:07;;;;;;;24.98;14.60;;;3.40;99.90;;;;;;4991049;28;20685;-75
2023/01/26 01:03:52;;;;;;;24.98;15.25;;;3.40;99.90;;;;;;5000891;28;20206;-73
2023/01/26 01:06:38;;;;;;;27.17;16.52;;;3.40;99.90;;;;;;4989442;28;20728;-72
2023/01/26 01:09:24;;;;;;;25.60;16.73;;;3.40;99.90;;;;;;4991409;28;20222;-75
2023/01/26 01:12:10;;;;;;;28.98;15.55;;;3.40;99.90;;;;;;4984203;28;20208;-73
2023/01/26 01:14:57;;;;;;;26.73;16.08;;;3.40;99.90;;;;;;4990263;28;20281;-74
2023/01/26 01:17:42;;;;;;;25.55;15.55;;;3.40;99.90;;;;;;4986253;28;20230;-73
2023/01/26 01:20:28;;;;;;;28.67;16.73;;;3.40;99.90;;;;;;4992180;28;20207;-73
2023/01/26 01:23:14;;;;;;;25.98;16.50;;;3.40;99.90;;;;;;4989989;28;20207;-73
2023/01/26 01:26:00;;;;;;;22.75;13.90;;;3.50;99.90;;;;;;4986342;28;20222;-73
2023/01/26 01:28:46;;;;;;;26.58;15.88;;;3.50;99.90;;;;;;5000059;28;20337;-73
2023/01/26 01:31:33;;;;;;;29.40;16.50;;;3.50;99.90;;;;;;4983789;28;20255;-74
2023/01/26 01:34:18;;;;;;;25.75;14.63;;;3.40;99.90;;;;;;4993441;28;20215;-73
2023/01/26 01:37:04;;;;;;;26.65;15.07;;;3.30;99.90;;;;;;4990151;28;20263;-73
2023/01/26 01:39:50;;;;;;;26.45;15.63;;;3.40;99.90;;;;;;4992531;28;20222;-73
2023/01/26 01:42:36;;;;;;;27.83;14.90;;;3.40;99.90;;;;;;4982349;28;20209;-73
2023/01/26 01:45:38;;;;;;;25.00;15.93;;;3.30;99.90;;;;;;5000356;28;20202;-72
2023/01/26 01:48:30;;;;;;;23.77;14.77;;;3.30;99.90;;;;;;4991190;28;20235;-73
2023/01/26 01:51:19;;;;;;;24.98;15.15;;;3.30;99.90;;;;;;4993643;28;20207;-73
2023/01/26 01:54:08;;;;;;;23.85;15.00;;;3.40;99.90;;;;;;4995460;28;20795;-72
2023/01/26 01:56:58;;;;;;;28.60;16.15;;;3.30;99.90;;;;;;4991330;28;20231;-73
2023/01/26 01:59:49;;;;;;;31.13;17.02;;;3.30;99.90;;;;;;4996709;28;20206;-73
2023/01/26 02:02:35;;;;;;;25.50;13.95;;;3.20;99.90;;;;;;4997642;28;20245;-73
2023/01/26 02:05:27;;;;;;;29.17;17.63;;;3.20;99.90;;;;;;4996291;28;20671;-73
2023/01/26 02:08:16;;;;;;;23.77;14.35;;;3.20;99.90;;;;;;4998297;28;20230;-73
2023/01/26 02:11:05;;;;;;;27.00;16.88;;;3.20;99.90;;;;;;4994467;28;20203;-73
2023/01/26 02:13:52;;;;;;;29.35;17.15;;;3.10;99.90;;;;;;4997128;28;20210;-74
2023/01/26 02:16:38;;;;;;;34.25;19.10;;;3.10;99.90;;;;;;4992464;28;20237;-72
2023/01/26 02:19:32;;;;;;;28.35;15.27;;;3.10;99.90;;;;;;4998864;28;20680;-73
2023/01/26 02:22:32;;;;;;;29.90;17.08;;;3.20;99.90;;;;;;4987963;28;20570;-73
2023/01/26 02:25:32;;;;;;;24.58;14.93;;;3.10;99.90;;;;;;4994410;28;20708;-73
2023/01/26 02:28:22;;;;;;;29.95;17.55;;;3.20;99.90;;;;;;5003454;28;20237;-75
2023/01/26 02:31:09;;;;;;;30.85;17.90;;;3.20;99.90;;;;;;4983250;28;20271;-74
2023/01/26 02:33:55;;;;;;;27.73;17.25;;;3.10;99.90;;;;;;4996591;28;20211;-72
2023/01/26 02:36:41;;;;;;;28.40;17.35;;;3.10;99.90;;;;;;4994984;28;20306;-73
2023/01/26 02:39:40;;;;;;;32.22;19.08;;;3.20;99.90;;;;;;5005789;28;20222;-73
2023/01/26 02:42:43;;;;;;;31.90;19.25;;;3.20;99.90;;;;;;4992725;28;20862;-72
2023/01/26 02:45:31;;;;;;;26.65;16.60;;;3.20;99.90;;;;;;5002566;28;20708;-73
2023/01/26 02:49:45;;;;;;;29.85;16.45;;;3.30;99.90;;;;;;4995103;28;20234;-73
2023/01/26 02:51:22;;;;;;;29.25;17.65;;;3.20;99.90;;;;;;4984876;28;20331;-73
2023/01/26 02:54:08;;;;;;;31.50;18.50;;;3.10;99.90;;;;;;4996496;28;20210;-73
2023/01/26 02:56:52;;;;;;;30.77;16.88;;;3.10;99.90;;;;;;4997078;28;20277;-72
2023/01/26 02:59:38;;;;;;;32.25;17.73;;;3.20;99.90;;;;;;4996046;28;20230;-73
2023/01/26 03:02:25;;;;;;;33.13;18.02;;;3.10;99.90;;;;;;4993192;28;20219;-73
2023/01/26 03:05:10;;;;;;;32.70;18.50;;;3.10;99.90;;;;;;4993182;28;20267;-73
2023/01/26 03:07:56;;;;;;;32.45;16.92;;;3.00;99.90;;;;;;5002724;28;20761;-73
2023/01/26 03:10:41;;;;;;;28.42;16.60;;;2.90;99.90;;;;;;4988571;28;20215;-73
2023/01/26 03:13:27;;;;;;;27.65;15.77;;;2.90;99.90;;;;;;4995883;28;20253;-73
2023/01/26 03:16:17;;;;;;;32.28;17.50;;;2.90;99.90;;;;;;5002657;28;20229;-73
2023/01/26 03:28:29;;;;;;;30.60;17.42;;;3.10;99.90;;;;;;5052220;22;20229;-74
2023/01/26 03:31:15;;;;;;;26.83;16.10;;;3.00;99.90;;;;;;5044040;28;20209;-73
2023/01/26 03:34:01;;;;;;;29.83;16.52;;;3.00;99.90;;;;;;5049011;28;20572;-73
2023/01/26 03:36:48;;;;;;;32.00;16.98;;;2.90;99.90;;;;;;5044664;28;20280;-74
2023/01/26 03:57:55;;;;;;;25.85;15.00;;;3.00;99.90;;;;;;5028085;28;20255;-73
2023/01/26 04:00:41;;;;;;;25.42;14.40;;;3.10;99.90;;;;;;5023594;28;20205;-73
2023/01/26 04:09:35;;;;;;;30.80;16.60;;;2.90;99.90;;;;;;5026464;28;20241;-73
2023/01/26 04:12:21;;;;;;;31.25;17.50;;;2.90;99.90;;;;;;5029000;28;20210;-73
2023/01/26 04:21:29;;;;;;;31.33;17.70;;;2.90;99.90;;;;;;5023670;28;20228;-73
2023/01/26 04:24:15;;;;;;;30.73;20.58;;;2.90;99.90;;;;;;5030617;28;20321;-73
2023/01/26 04:27:02;;;;;;;29.92;19.00;;;2.90;99.90;;;;;;5033383;28;20315;-74
2023/01/26 04:29:47;;;;;;;35.05;21.65;;;2.90;99.90;;;;;;5023668;28;20820;-74
2023/01/26 04:32:33;;;;;;;39.17;19.45;;;2.90;99.90;;;;;;5033188;28;20690;-73
2023/01/26 04:35:19;;;;;;;36.63;19.98;;;3.00;99.90;;;;;;5031820;28;20213;-73
2023/01/26 04:38:04;;;;;;;29.45;18.15;;;2.80;99.90;;;;;;5032832;28;20729;-74
2023/01/26 04:40:53;;;;;;;33.70;19.13;;;2.80;99.90;;;;;;5032638;28;20714;-74
2023/01/26 04:43:40;;;;;;;36.03;20.45;;;2.80;99.90;;;;;;5033368;28;20229;-73
2023/01/26 04:46:26;;;;;;;35.70;19.90;;;2.70;99.90;;;;;;5029666;28;20638;-73
2023/01/26 04:49:11;;;;;;;29.30;19.40;;;2.70;99.90;;;;;;5024640;28;20221;-73
2023/01/26 04:51:57;;;;;;;32.92;19.25;;;2.60;99.90;;;;;;5033922;28;20205;-73
2023/01/26 04:54:43;;;;;;;36.17;21.27;;;2.70;99.90;;;;;;5028219;28;20668;-73
2023/01/26 04:57:29;;;;;;;32.97;19.65;;;2.60;99.90;;;;;;5033094;28;20229;-73
2023/01/26 05:00:16;;;;;;;32.13;18.10;;;2.70;99.90;;;;;;5019868;28;20595;-74
2023/01/26 05:03:02;;;;;;;28.95;18.58;;;2.80;99.90;;;;;;5031993;28;20562;-74
2023/01/26 05:05:49;;;;;;;27.88;17.63;;;2.70;99.90;;;;;;5033084;28;20252;-74
2023/01/26 05:08:37;;;;;;;25.92;15.57;;;2.80;99.90;;;;;;5021168;28;20229;-73
2023/01/26 05:11:22;;;;;;;29.88;17.33;;;2.70;99.90;;;;;;5032775;28;20719;-73
2023/01/26 05:14:08;;;;;;;25.65;14.98;;;2.70;99.90;;;;;;5022856;28;20241;-73
2023/01/26 05:16:55;;;;;;;26.17;15.02;;;2.70;99.90;;;;;;5026292;28;20238;-74
2023/01/26 05:19:41;;;;;;;24.15;14.02;;;2.70;99.90;;;;;;5024699;28;20250;-74
2023/01/26 05:22:26;;;;;;;27.73;15.68;;;2.60;99.90;;;;;;5030815;28;20593;-73
2023/01/26 05:25:12;;;;;;;26.20;16.08;;;2.60;99.90;;;;;;5022338;28;20202;-74
2023/01/26 05:27:58;;;;;;;25.40;16.88;;;2.50;99.90;;;;;;5028371;28;20229;-73
2023/01/26 05:30:43;;;;;;;27.23;16.40;;;2.50;99.90;;;;;;5024887;28;20273;-74
2023/01/26 05:33:31;;;;;;;28.48;17.17;;;2.60;99.90;;;;;;5024323;28;20324;-73
2023/01/26 05:36:16;;;;;;;35.83;17.65;;;2.60;99.90;;;;;;5030791;28;20775;-73
2023/01/26 05:39:02;;;;;;;24.70;15.40;;;2.70;99.90;;;;;;5023261;28;20301;-74
2023/01/26 05:41:48;;;;;;;34.35;16.05;;;2.60;99.90;;;;;;5026543;28;20205;-73
2023/01/26 05:44:33;;;;;;;26.55;16.02;;;2.60;99.90;;;;;;5016488;28;20277;-73
2023/01/26 05:47:19;;;;;;;25.70;15.20;;;2.60;99.90;;;;;;5023380;28;20241;-74
2023/01/26 05:50:07;;;;;;;25.13;13.40;;;2.60;99.90;;;;;;5025857;28;20252;-73
2023/01/26 05:52:53;;;;;;;22.52;13.48;;;2.70;99.90;;;;;;5030464;28;20218;-73
2023/01/26 05:55:38;;;;;;;24.50;13.98;;;2.70;99.90;;;;;;5031307;28;20359;-73
2023/01/26 05:58:24;;;;;;;24.42;15.32;;;2.70;99.90;;;;;;5023582;28;20268;-73
2023/01/26 06:01:10;;;;;;;26.23;13.98;;;2.70;99.90;;;;;;5031384;28;20740;-73
2023/01/26 06:03:55;;;;;;;21.95;14.02;;;2.60;99.90;;;;;;5031936;28;20209;-73
2023/01/26 06:06:42;;;;;;;24.65;13.98;;;2.60;99.90;;;;;;5032230;28;20737;-73
2023/01/26 06:09:28;;;;;;;22.45;13.30;;;2.60;99.90;;;;;;5026485;28;20520;-73
2023/01/26 06:12:16;;;;;;;23.02;13.65;;;2.60;99.90;;;;;;5031919;28;20208;-73
2023/01/26 06:15:02;;;;;;;23.77;15.10;;;2.70;99.90;;;;;;5030739;28;20260;-74
2023/01/26 06:17:47;;;;;;;27.67;16.15;;;2.70;99.90;;;;;;5022271;28;20242;-74
2023/01/26 06:20:33;;;;;;;18.00;11.25;;;2.70;99.90;;;;;;5028243;28;20694;-74
2023/01/26 06:23:20;;;;;;;24.77;14.40;;;2.60;99.90;;;;;;5031622;28;20309;-74
2023/01/26 06:26:06;;;;;;;20.40;11.70;;;2.70;99.90;;;;;;5027895;28;20325;-73
2023/01/26 06:28:52;;;;;;;21.40;12.98;;;2.60;99.90;;;;;;5026149;28;20213;-73
2023/01/26 06:31:37;;;;;;;22.08;13.07;;;2.60;99.90;;;;;;5024883;28;20645;-73
2023/01/26 06:34:23;;;;;;;22.95;14.15;;;2.60;99.90;;;;;;5029320;28;20213;-73
2023/01/26 06:37:09;;;;;;;18.63;12.13;;;2.60;99.90;;;;;;5029137;28;20253;-73
2023/01/26 06:39:56;;;;;;;19.02;11.80;;;2.70;99.90;;;;;;5023482;28;20229;-73
2023/01/26 06:42:47;;;;;;;18.40;11.43;;;2.70;99.90;;;;;;5022275;28;20604;-73
2023/01/26 06:45:33;;;;;;;19.92;11.75;;;2.70;99.90;;;;;;5031067;28;20201;-74
2023/01/26 06:48:18;;;;;;;21.42;13.13;;;2.70;99.90;;;;;;5028846;28;20264;-73
2023/01/26 06:51:20;;;;;;;18.65;11.15;;;2.70;99.90;;;;;;5020913;28;20774;-73
2023/01/26 06:54:06;;;;;;;23.45;13.23;;;2.70;99.90;;;;;;5030425;28;20209;-73
2023/01/26 06:56:53;;;;;;;20.55;11.40;;;2.60;99.90;;;;;;5022662;28;20439;-74
2023/01/26 06:59:38;;;;;;;24.55;13.60;;;2.60;99.90;;;;;;5026698;28;20210;-73
2023/01/26 07:02:24;;;;;;;20.83;12.60;;;2.50;99.90;;;;;;5030207;28;20328;-73
2023/01/26 07:05:10;;;;;;;21.83;12.27;;;2.50;99.90;;;;;;5027714;28;20678;-74
2023/01/26 07:07:55;;;;;;;27.13;13.30;;;2.40;99.90;;;;;;5026807;28;20347;-73
2023/01/26 07:10:41;;;;;;;23.10;13.73;;;2.30;99.90;;;;;;5028009;28;20197;-74
2023/01/26 07:13:28;;;;;;;18.23;11.40;;;2.30;99.90;;;;;;5018739;28;20406;-74
2023/01/26 07:16:15;;;;;;;26.17;13.05;;;2.40;99.90;;;;;;5030476;28;20201;-73
2023/01/26 07:19:00;;;;;;;15.98;10.93;;;2.40;99.90;;;;;;5027956;28;20209;-73
2023/01/26 07:21:47;;;;;;;20.52;12.00;;;2.50;99.90;;;;;;5030772;28;20204;-74
2023/01/26 07:24:33;;;;;;;23.98;14.73;;;2.40;99.90;;;;;;5021725;28;20551;-74
2023/01/26 07:27:18;;;;;;;26.05;16.55;;;2.40;99.90;;;;;;5027816;28;20300;-74
2023/01/26 07:30:06;;;;;;;27.75;17.52;;;2.50;99.90;;;;;;5034045;28;20286;-72
2023/01/26 07:32:52;;;;;;;26.40;16.40;;;2.50;99.90;;;;;;5024749;28;20583;-72
2023/01/26 07:35:37;;;;;;;17.67;11.75;;;2.50;99.90;;;;;;5027950;28;20576;-73
2023/01/26 07:38:24;;;;;;;19.05;12.10;;;2.50;99.90;;;;;;5024817;28;20233;-73
2023/01/26 07:41:12;;;;;;;22.73;11.85;;;2.60;99.90;;;;;;5025387;28;20201;-73
2023/01/26 07:43:58;;;;;;;20.95;12.23;;;2.60;99.90;;;;;;5026491;28;20206;-73
2023/01/26 07:46:45;;;;;;;41.60;20.42;;;2.70;99.90;;;;;;5026389;28;20225;-73
2023/01/26 07:49:31;;;;;;;24.08;14.35;;;2.70;99.90;;;;;;5027431;28;20229;-73
2023/01/26 07:52:16;;;;;;;30.30;14.98;;;2.80;99.90;;;;;;5023358;28;20257;-73
2023/01/26 07:55:02;;;;;;;25.00;12.32;;;2.80;99.90;;;;;;5031421;28;20213;-73
2023/01/26 07:57:48;;;;;;;27.15;12.82;;;2.80;99.90;;;;;;5028879;28;20369;-73
2023/01/26 08:00:34;;;;;;;19.38;12.32;;;2.80;99.90;;;;;;5025249;28;20205;-74
2023/01/26 08:03:24;;;;;;;18.88;10.75;;;2.80;99.90;;;;;;5027531;28;20212;-73
2023/01/26 08:06:10;;;;;;;16.40;10.88;;;2.80;99.90;;;;;;5029449;28;20218;-73
2023/01/26 08:08:56;;;;;;;16.00;10.88;;;2.80;99.90;;;;;;5027487;28;20329;-73
2023/01/26 08:11:42;;;;;;;17.50;10.00;;;2.70;99.90;;;;;;5022179;28;20209;-73
2023/01/26 08:14:27;;;;;;;15.35;10.73;;;2.70;99.90;;;;;;5029309;28;20718;-73
2023/01/26 08:17:16;;;;;;;17.80;11.70;;;2.50;99.90;;;;;;5025486;28;20221;-73
2023/01/26 08:20:03;;;;;;;18.40;10.52;;;2.50;99.90;;;;;;5029518;28;20332;-73
2023/01/26 08:22:49;;;;;;;15.38;10.05;;;2.40;99.90;;;;;;5025536;28;20252;-73
2023/01/26 08:25:34;;;;;;;14.25;10.15;;;2.40;99.90;;;;;;5025450;28;20209;-73
2023/01/26 08:28:20;;;;;;;23.10;14.57;;;2.50;99.90;;;;;;5030306;28;20352;-73
2023/01/26 08:31:07;;;;;;;101.07;51.85;;;2.50;99.90;;;;;;5029524;28;20214;-73
2023/01/26 08:33:54;;;;;;;46.60;26.20;;;2.50;99.90;;;;;;5028413;28;20767;-73
2023/01/26 08:36:41;;;;;;;16.88;11.48;;;2.50;99.90;;;;;;5024739;28;20718;-73
2023/01/26 08:39:27;;;;;;;67.20;30.35;;;2.50;99.90;;;;;;5026754;28;20222;-73
2023/01/26 08:42:12;;;;;;;27.33;14.45;;;2.60;99.90;;;;;;5029402;28;20212;-73
2023/01/26 08:44:58;;;;;;;19.92;11.07;;;2.60;99.90;;;;;;5030704;28;20201;-72
2023/01/26 08:47:45;;;;;;;13.40;8.93;;;2.60;99.90;;;;;;5024770;28;20244;-73
2023/01/26 08:50:30;;;;;;;13.50;7.70;;;2.70;99.90;;;;;;5018800;28;20774;-73
2023/01/26 08:53:17;;;;;;;10.45;6.80;;;2.70;99.90;;;;;;5028005;28;20715;-73
2023/01/26 08:56:03;;;;;;;13.23;7.80;;;2.80;99.90;;;;;;5026033;28;20205;-73
2023/01/26 08:58:49;;;;;;;9.85;6.65;;;2.80;99.90;;;;;;5028785;28;20343;-73
2023/01/26 09:01:35;;;;;;;12.30;8.57;;;2.80;99.90;;;;;;5017734;28;20205;-73
2023/01/26 09:04:20;;;;;;;14.65;9.23;;;2.80;99.90;;;;;;5033124;28;20622;-73
2023/01/26 09:07:06;;;;;;;13.77;8.95;;;2.80;99.90;;;;;;5024883;28;20226;-73
2023/01/26 09:09:53;;;;;;;15.50;10.20;;;2.80;99.90;;;;;;5026022;28;20225;-73
2023/01/26 09:12:38;;;;;;;16.02;9.52;;;2.80;99.90;;;;;;5033108;28;20510;-73
2023/01/26 09:15:24;;;;;;;18.65;9.98;;;2.90;99.90;;;;;;5033002;28;20205;-73
2023/01/26 09:18:10;;;;;;;14.32;9.75;;;2.80;99.90;;;;;;5032360;28;20329;-73
2023/01/26 09:21:02;;;;;;;13.18;9.13;;;2.80;99.90;;;;;;5025435;28;20209;-73
2023/01/26 09:23:48;;;;;;;12.13;8.80;;;2.80;99.90;;;;;;5032171;28;20655;-73
2023/01/26 09:26:35;;;;;;;13.63;9.88;;;2.80;99.90;;;;;;5030911;28;20325;-73
2023/01/26 09:29:20;;;;;;;17.52;10.38;;;2.80;99.90;;;;;;5079028;22;20231;-76
2023/01/26 09:32:06;;;;;;;15.70;10.75;;;2.80;99.90;;;;;;5058172;28;20204;-76
2023/01/26 09:34:52;;;;;;;13.45;9.15;;;2.80;99.90;;;;;;5064405;28;20204;-76
2023/01/26 09:37:38;;;;;;;19.80;13.45;;;2.90;99.90;;;;;;5069211;28;20354;-77
2023/01/26 09:40:35;;;;;;;14.10;10.32;;;2.80;99.90;;;;;;5063387;28;20254;-76
2023/01/26 09:43:32;;;;;;;25.42;16.90;;;2.80;99.90;;;;;;5062342;28;20223;-76
2023/01/26 09:46:22;;;;;;;13.55;10.13;;;2.90;99.90;;;;;;5066677;28;20723;-76
2023/01/26 09:49:14;;;;;;;13.60;9.32;;;2.90;99.90;;;;;;5061822;28;20339;-76
2023/01/26 09:52:05;;;;;;;36.17;16.73;;;2.80;99.90;;;;;;5068336;28;20203;-76
2023/01/26 09:54:52;;;;;;;26.38;13.52;;;2.80;99.90;;;;;;5065535;28;20201;-76
2023/01/26 09:57:46;;;;;;;12.50;8.88;;;2.90;99.90;;;;;;5059545;28;20224;-77
2023/01/26 10:00:37;;;;;;;11.93;8.13;;;2.80;99.90;;;;;;5056656;28;20579;-76
2023/01/26 10:03:28;;;;;;;9.38;7.57;;;2.90;99.90;;;;;;5065203;28;20204;-76
2023/01/26 10:06:20;;;;;;;10.43;7.38;;;2.90;99.90;;;;;;5067015;28;20717;-76
2023/01/26 10:09:13;;;;;;;10.75;6.68;;;3.00;99.90;;;;;;5062651;28;21023;-76
2023/01/26 10:12:02;;;;;;;7.80;5.72;;;3.00;99.90;;;;;;5065180;28;20567;-76
2023/01/26 10:14:52;;;;;;;7.72;5.63;;;3.00;99.90;;;;;;5059758;28;20204;-76
2023/01/26 10:17:42;;;;;;;9.75;7.03;;;2.90;99.90;;;;;;5063893;28;20306;-76
2023/01/26 10:20:31;;;;;;;6.55;5.00;;;3.00;99.90;;;;;;5066644;28;21169;-76
2023/01/26 10:23:21;;;;;;;8.77;6.35;;;3.00;99.90;;;;;;5069320;28;20255;-76
2023/01/26 10:26:14;;;;;;;8.00;5.72;;;2.80;99.90;;;;;;5062424;28;20638;-76
2023/01/26 10:29:00;;;;;;;10.57;7.53;;;2.80;99.90;;;;;;5061523;28;20846;-76
2023/01/26 10:31:46;;;;;;;9.88;6.53;;;2.80;99.90;;;;;;5069662;28;20205;-76
2023/01/26 10:34:33;;;;;;;11.23;7.82;;;2.90;99.90;;;;;;5059837;28;20414;-76
2023/01/26 10:37:23;;;;;;;9.35;6.75;;;2.80;99.90;;;;;;5064029;28;20220;-75
2023/01/26 10:40:10;;;;;;;8.38;6.50;;;2.80;99.90;;;;;;5060733;28;20212;-76
2023/01/26 10:42:59;;;;;;;10.40;6.90;;;2.80;99.90;;;;;;5064445;28;20669;-75
2023/01/26 10:45:46;;;;;;;12.50;8.73;;;2.90;99.90;;;;;;5068873;28;20213;-75
2023/01/26 10:48:33;;;;;;;11.15;7.32;;;2.90;99.90;;;;;;5075436;28;20246;-74
2023/01/26 10:51:24;;;;;;;8.55;6.68;;;3.00;99.90;;;;;;5066763;28;20204;-73
2023/01/26 10:54:22;;;;;;;9.25;7.15;;;2.90;99.90;;;;;;5066136;28;20810;-72
2023/01/26 10:57:17;;;;;;;10.60;7.38;;;2.90;99.90;;;;;;5069405;28;20197;-77
2023/01/26 11:00:09;;;;;;;10.35;8.00;;;2.90;99.90;;;;;;5065608;28;20208;-75
2023/01/26 11:02:59;;;;;;;11.40;8.45;;;2.90;99.90;;;;;;5072051;28;20708;-76
2023/01/26 11:05:46;;;;;;;10.20;7.82;;;2.90;99.90;;;;;;5077911;28;20567;-76
2023/01/26 11:08:35;;;;;;;7.75;6.22;;;2.90;99.90;;;;;;5071834;28;20216;-77
2023/01/26 11:11:26;;;;;;;9.27;6.68;;;2.90;99.90;;;;;;5071130;28;20558;-76
2023/01/26 11:14:15;;;;;;;10.07;8.00;;;2.80;99.90;;;;;;5069388;28;20212;-76
2023/01/26 11:17:09;;;;;;;9.65;6.53;;;2.70;99.90;;;;;;5063472;28;20204;-76
2023/01/26 11:20:25;;;;;;;9.18;6.75;;;2.60;99.90;;;;;;5059693;28;20204;-76
2023/01/26 11:23:22;;;;;;;15.23;10.23;;;2.50;99.90;;;;;;5066944;28;20302;-75
2023/01/26 11:26:27;;;;;;;10.35;7.85;;;2.60;99.90;;;;;;5066802;28;20199;-76
2023/01/26 11:29:50;;;;;;;9.65;7.30;;;2.70;99.90;;;;;;5068259;28;20223;-76
2023/01/26 11:32:45;;;;;;;12.35;8.65;;;2.70;99.90;;;;;;5065887;28;20208;-75
2023/01/26 11:35:41;;;;;;;12.85;9.65;;;2.80;99.90;;;;;;5070968;28;20273;-75
2023/01/26 11:38:37;;;;;;;15.90;12.73;;;2.80;99.90;;;;;;5067906;28;20220;-77
2023/01/26 11:41:40;;;;;;;16.20;10.48;;;2.80;99.90;;;;;;5078633;28;20216;-76
2023/01/26 11:44:37;;;;;;;12.40;9.25;;;2.80;99.90;;;;;;5074119;28;20199;-76
2023/01/26 11:47:39;;;;;;;13.68;9.80;;;2.70;99.90;;;;;;5071542;28;20571;-76
2023/01/26 11:50:36;;;;;;;11.57;9.05;;;2.70;99.90;;;;;;5073390;28;20622;-75
2023/01/26 11:53:40;;;;;;;12.70;9.18;;;2.70;99.90;;;;;;5071481;28;20203;-75
2023/01/26 11:56:41;;;;;;;14.95;10.30;;;2.70;99.90;;;;;;5073063;28;20313;-77
2023/01/26 11:59:33;;;;;;;17.25;12.30;;;2.80;99.90;;;;;;5065362;28;20270;-75
2023/01/26 12:02:28;;;;;;;22.20;12.50;;;2.80;99.90;;;;;;5063919;28;20205;-76
2023/01/26 12:05:19;;;;;;;16.02;11.05;;;2.80;99.90;;;;;;5072749;28;20208;-76
2023/01/26 12:08:11;;;;;;;12.45;9.50;;;2.80;99.90;;;;;;5060246;28;20216;-76
2023/01/26 12:14:18;;;;;;;9.73;7.47;;;2.80;99.90;;;;;;5068279;28;20252;-77
2023/01/26 12:17:18;;;;;;;8.82;6.13;;;2.80;99.90;;;;;;5076524;28;20204;-76
2023/01/26 12:20:19;;;;;;;8.77;6.00;;;2.80;99.90;;;;;;5069519;28;20204;-76
2023/01/26 12:23:12;;;;;;;8.00;6.00;;;2.70;99.90;;;;;;5066498;28;20353;-76
2023/01/26 12:26:00;;;;;;;8.02;5.78;;;2.70;99.90;;;;;;5073443;28;20212;-76
2023/01/26 12:28:50;;;;;;;8.68;5.78;;;2.80;99.90;;;;;;5067960;28;20227;-76
2023/01/26 12:31:44;;;;;;;11.63;7.70;;;2.80;99.90;;;;;;5069725;28;20222;-76
2023/01/26 12:34:32;;;;;;;11.65;8.38;;;2.80;99.90;;;;;;5068310;28;20216;-76
2023/01/26 12:37:42;;;;;;;10.70;8.20;;;2.70;99.90;;;;;;5081895;28;20276;-78
2023/01/26 12:40:36;;;;;;;11.27;8.10;;;2.80;99.90;;;;;;5069301;28;20199;-76
2023/01/26 12:43:36;;;;;;;13.38;9.27;;;2.70;99.90;;;;;;5067208;28;20216;-76
2023/01/26 12:46:24;;;;;;;12.10;8.55;;;2.50;99.90;;;;;;5069896;28;20333;-77
2023/01/26 12:49:16;;;;;;;11.77;8.75;;;2.40;99.90;;;;;;5066661;28;20579;-76
2023/01/26 12:52:07;;;;;;;13.35;10.18;;;2.20;99.90;;;;;;5073631;28;20204;-76
2023/01/26 12:54:58;;;;;;;12.70;9.63;;;2.20;99.90;;;;;;5069549;28;20250;-76
2023/01/26 12:57:49;;;;;;;12.20;9.98;;;2.30;99.90;;;;;;5077252;28;20239;-76
2023/01/26 13:00:37;;;;;;;11.55;8.60;;;2.40;99.90;;;;;;5065594;28;20208;-75
2023/01/26 13:03:26;;;;;;;14.70;9.88;;;2.50;99.90;;;;;;5063861;28;20207;-76
2023/01/26 13:06:22;;;;;;;12.88;8.60;;;2.50;99.90;;;;;;5070682;28;20223;-76
2023/01/26 13:09:20;;;;;;;12.20;8.98;;;2.50;99.90;;;;;;5076472;28;20356;-75
2023/01/26 13:12:45;;;;;;;14.50;9.60;;;2.30;99.90;;;;;;5067464;28;20286;-75
2023/01/26 13:15:32;;;;;;;11.80;9.63;;;2.20;99.90;;;;;;5067734;28;20666;-76
2023/01/26 13:18:18;;;;;;;11.23;8.75;;;2.20;99.90;;;;;;5068953;28;20220;-76
2023/01/26 13:21:04;;;;;;;11.20;9.60;;;2.20;99.90;;;;;;5068004;28;20207;-76
2023/01/26 13:23:51;;;;;;;12.25;10.65;;;2.20;99.90;;;;;;5071002;28;20208;-76
2023/01/26 13:26:46;;;;;;;12.77;9.85;;;2.30;99.90;;;;;;5075268;28;20208;-76
2023/01/26 13:29:34;;;;;;;14.13;10.82;;;2.20;99.90;;;;;;5080365;28;20278;-76
2023/01/26 13:32:53;;;;;;;13.95;10.18;;;2.10;99.90;;;;;;5062688;28;20336;-76
2023/01/26 13:35:39;;;;;;;12.70;9.43;;;2.00;99.90;;;;;;5070141;28;20708;-76
2023/01/26 13:38:33;;;;;;;18.33;11.57;;;2.10;99.90;;;;;;5068607;28;20247;-76
2023/01/26 13:41:21;;;;;;;20.08;12.55;;;2.20;99.90;;;;;;5061850;28;20247;-76
2023/01/26 13:44:10;;;;;;;13.02;9.45;;;2.20;99.90;;;;;;5069680;28;20348;-78
2023/01/26 13:47:01;;;;;;;10.30;8.10;;;2.20;99.90;;;;;;5068030;28;20205;-76
2023/01/26 13:49:49;;;;;;;12.75;9.60;;;2.30;99.90;;;;;;5061983;28;20205;-76
2023/01/26 13:52:42;;;;;;;13.30;10.13;;;2.30;99.90;;;;;;5063630;28;20200;-76
2023/01/26 13:55:31;;;;;;;17.80;10.70;;;2.30;99.90;;;;;;5062942;28;20678;-77
2023/01/26 13:58:18;;;;;;;16.08;10.80;;;2.30;99.90;;;;;;5080025;28;20309;-76
2023/01/26 14:01:07;;;;;;;20.48;12.77;;;2.30;99.90;;;;;;5063793;28;20204;-77
2023/01/26 14:04:03;;;;;;;17.42;8.30;;;2.20;99.90;;;;;;5070811;28;20211;-76
2023/01/26 14:06:55;;;;;;;18.48;11.45;;;2.10;99.90;;;;;;5074758;28;20212;-76
2023/01/26 14:09:46;;;;;;;15.35;11.38;;;2.10;99.90;;;;;;5067672;28;20690;-76
2023/01/26 14:12:35;;;;;;;12.52;9.25;;;2.00;99.90;;;;;;5069279;28;20387;-76
2023/01/26 14:15:25;;;;;;;19.25;11.80;;;1.90;99.90;;;;;;5070029;28;20354;-76
2023/01/26 14:18:20;;;;;;;18.25;12.57;;;1.90;99.90;;;;;;5069890;28;20227;-75
2023/01/26 14:21:17;;;;;;;19.05;12.35;;;1.80;99.90;;;;;;5067163;28;20220;-75
2023/01/26 14:24:02;;;;;;;16.50;11.35;;;1.80;99.90;;;;;;5066300;28;20348;-76
2023/01/26 14:26:49;;;;;;;13.95;10.55;;;1.80;99.90;;;;;;5065621;28;20208;-75
2023/01/26 14:29:39;;;;;;;14.07;10.15;;;1.90;99.90;;;;;;5067811;28;20227;-75
2023/01/26 14:32:28;;;;;;;17.33;12.00;;;2.00;99.90;;;;;;5064046;28;20205;-76
2023/01/26 14:35:21;;;;;;;13.60;10.70;;;2.10;99.90;;;;;;5075496;28;20230;-76
2023/01/26 14:38:18;;;;;;;22.33;12.10;;;2.00;99.90;;;;;;5074149;28;20219;-77
2023/01/26 14:41:10;;;;;;;15.95;11.80;;;2.10;99.90;;;;;;5062244;28;20225;-76
2023/01/26 14:44:00;;;;;;;19.23;12.35;;;2.00;99.90;;;;;;5073359;28;20212;-75
2023/01/26 14:46:58;;;;;;;14.45;9.90;;;2.00;99.90;;;;;;5074634;28;20209;-78
2023/01/26 14:49:50;;;;;;;13.50;10.55;;;2.00;99.90;;;;;;5064026;28;20196;-76
2023/01/26 14:52:38;;;;;;;12.52;9.35;;;2.10;99.90;;;;;;5066625;28;20396;-75
2023/01/26 14:55:27;;;;;;;11.80;7.75;;;2.20;99.90;;;;;;5062845;28;20576;-76
2023/01/26 14:58:19;;;;;;;13.93;10.48;;;2.20;99.90;;;;;;5067340;28;20228;-76
2023/01/26 15:01:05;;;;;;;12.32;10.05;;;2.10;99.90;;;;;;5061726;28;20279;-76
2023/01/26 15:03:57;;;;;;;12.40;9.00;;;2.10;99.90;;;;;;5069664;28;20213;-75
2023/01/26 15:06:44;;;;;;;13.50;10.13;;;2.10;99.90;;;;;;5058337;28;20247;-76
2023/01/26 15:09:33;;;;;;;12.48;10.13;;;2.20;99.90;;;;;;5064967;28;20227;-76
2023/01/26 15:12:20;;;;;;;14.80;9.73;;;2.20;99.90;;;;;;5057054;28;20238;-76
2023/01/26 15:15:13;;;;;;;13.23;9.57;;;2.20;99.90;;;;;;5060986;28;20705;-76
2023/01/26 15:18:04;;;;;;;14.82;11.60;;;2.20;99.90;;;;;;5061609;28;20735;-75
2023/01/26 15:21:00;;;;;;;12.32;9.57;;;2.20;99.90;;;;;;5071598;28;20254;-76